Time;durP1;ratioP1;P1;durP2;ratioP2;P2;SDS_P1;SDS_P2;PMS_P1;PMS_P2;Temp;Humidity;BMP_temperature;BMP_pressure;BME280_temperature;BME280_humidity;BME280_pressure;Samples;Min_cycle;Max_cycle;Signal;HPM_P1;HPM_P2
2023/12/05 00:00:43;;;;;;;7.93;5.10;;;;;;;;;;2097834;28;20469;-76
2023/12/05 00:02:01;;;;;;;9.40;5.80;;;;;;;;;;2094900;28;20075;-75
2023/12/05 00:03:21;;;;;;;7.38;5.60;;;;;;;;;;2096153;28;20044;-75
2023/12/05 00:04:40;;;;;;;5.68;5.07;;;;;;;;;;2096904;28;20115;-75
2023/12/05 00:05:59;;;;;;;6.07;5.47;;;;;;;;;;2097106;28;20032;-75
2023/12/05 00:07:19;;;;;;;6.25;5.65;;;;;;;;;;2096506;28;20123;-75
2023/12/05 00:08:38;;;;;;;5.95;5.18;;;;;;;;;;2096388;28;20037;-76
2023/12/05 00:09:58;;;;;;;7.15;5.93;;;;;;;;;;2097956;28;20032;-75
2023/12/05 00:11:16;;;;;;;6.53;5.93;;;;;;;;;;2095375;28;20032;-75
2023/12/05 00:12:37;;;;;;;7.10;5.82;;;;;;;;;;2096750;28;20505;-75
2023/12/05 00:13:56;;;;;;;7.03;5.75;;;;;;;;;;2095833;28;20044;-75
2023/12/05 00:15:15;;;;;;;6.10;5.18;;;;;;;;;;2096149;28;20032;-75
2023/12/05 00:16:34;;;;;;;7.03;5.72;;;;;;;;;;2092993;28;20115;-75
2023/12/05 00:17:52;;;;;;;9.25;6.13;;;;;;;;;;2096485;28;20028;-75
2023/12/05 00:19:11;;;;;;;6.63;5.93;;;;;;;;;;2093875;28;20021;-75
2023/12/05 00:20:30;;;;;;;8.82;5.78;;;;;;;;;;2096240;28;20048;-73
2023/12/05 00:21:49;;;;;;;10.77;6.18;;;;;;;;;;2094670;28;20552;-75
2023/12/05 00:23:08;;;;;;;8.40;6.60;;;;;;;;;;2093624;28;20055;-76
2023/12/05 00:24:27;;;;;;;7.22;6.28;;;;;;;;;;2096129;28;20032;-75
2023/12/05 00:25:46;;;;;;;8.60;6.43;;;;;;;;;;2092183;28;20036;-77
2023/12/05 00:27:06;;;;;;;9.13;6.45;;;;;;;;;;2094022;28;20111;-76
2023/12/05 00:28:25;;;;;;;12.05;6.68;;;;;;;;;;2098684;28;20024;-77
2023/12/05 00:29:46;;;;;;;8.75;6.72;;;;;;;;;;2100404;28;20028;-75
2023/12/05 00:31:05;;;;;;;8.60;6.22;;;;;;;;;;2096092;28;20437;-75
2023/12/05 00:32:24;;;;;;;10.23;6.57;;;;;;;;;;2096520;28;20076;-75
2023/12/05 00:33:43;;;;;;;9.73;6.50;;;;;;;;;;2096949;28;20037;-76
2023/12/05 00:35:03;;;;;;;7.30;6.53;;;;;;;;;;2094083;28;20608;-75
2023/12/05 00:36:22;;;;;;;8.50;6.70;;;;;;;;;;2097122;28;20036;-75
2023/12/05 00:37:41;;;;;;;7.57;6.72;;;;;;;;;;2094781;28;20032;-74
2023/12/05 00:39:00;;;;;;;11.85;6.93;;;;;;;;;;2096563;28;20032;-75
2023/12/05 00:40:19;;;;;;;9.30;7.40;;;;;;;;;;2095410;28;20028;-75
2023/12/05 00:41:38;;;;;;;7.95;6.75;;;;;;;;;;2097549;28;20497;-75
2023/12/05 00:42:57;;;;;;;9.25;7.07;;;;;;;;;;2096951;28;20492;-74
2023/12/05 00:44:16;;;;;;;9.02;6.60;;;;;;;;;;2097415;28;21510;-75
2023/12/05 00:45:35;;;;;;;7.97;6.63;;;;;;;;;;2095921;28;20072;-74
2023/12/05 00:46:54;;;;;;;9.07;6.70;;;;;;;;;;2095887;28;20044;-75
2023/12/05 00:48:13;;;;;;;11.77;7.68;;;;;;;;;;2096881;28;20037;-75
2023/12/05 00:49:35;;;;;;;7.88;6.75;;;;;;;;;;2093087;28;20033;-75
2023/12/05 00:50:54;;;;;;;10.40;7.50;;;;;;;;;;2095419;28;20099;-74
2023/12/05 00:52:13;;;;;;;15.63;7.68;;;;;;;;;;2095499;28;20257;-75
2023/12/05 00:53:32;;;;;;;12.82;8.73;;;;;;;;;;2092976;28;20060;-75
2023/12/05 00:54:51;;;;;;;9.52;8.13;;;;;;;;;;2095138;28;20489;-75
2023/12/05 00:56:14;;;;;;;15.98;9.20;;;;;;;;;;2093875;28;20040;-75
2023/12/05 00:57:33;;;;;;;34.00;9.98;;;;;;;;;;2094845;28;20056;-75
2023/12/05 00:58:52;;;;;;;13.98;9.48;;;;;;;;;;2097223;28;20060;-75
2023/12/05 01:00:13;;;;;;;16.42;9.48;;;;;;;;;;2097087;28;20028;-75
2023/12/05 01:01:32;;;;;;;16.20;11.13;;;;;;;;;;2095198;28;20021;-76
2023/12/05 01:02:51;;;;;;;16.05;10.15;;;;;;;;;;2104685;28;20485;-76
2023/12/05 01:04:10;;;;;;;136.80;14.63;;;;;;;;;;2094889;28;20485;-75
2023/12/05 01:05:28;;;;;;;122.18;17.27;;;;;;;;;;2091070;28;20063;-75
2023/12/05 01:06:48;;;;;;;96.63;15.90;;;;;;;;;;2093485;28;20040;-74
2023/12/05 01:08:07;;;;;;;95.78;14.07;;;;;;;;;;2094653;28;20040;-76
2023/12/05 01:09:25;;;;;;;102.32;14.60;;;;;;;;;;2088770;28;20148;-76
2023/12/05 01:10:44;;;;;;;61.78;13.52;;;;;;;;;;2096502;28;20056;-75
2023/12/05 01:12:03;;;;;;;28.38;12.52;;;;;;;;;;2095948;28;20037;-75
2023/12/05 01:13:24;;;;;;;92.43;16.17;;;;;;;;;;2095339;28;20040;-75
2023/12/05 01:14:43;;;;;;;76.05;13.25;;;;;;;;;;2094504;28;20028;-75
2023/12/05 01:16:03;;;;;;;276.23;24.45;;;;;;;;;;2090897;28;20524;-75
2023/12/05 01:17:22;;;;;;;178.57;17.73;;;;;;;;;;2094571;28;20044;-75
2023/12/05 01:18:41;;;;;;;191.95;16.42;;;;;;;;;;2095943;28;20028;-76
2023/12/05 01:20:00;;;;;;;133.52;15.05;;;;;;;;;;2095325;28;20045;-76
2023/12/05 01:21:19;;;;;;;126.18;15.88;;;;;;;;;;2097399;28;20501;-75
2023/12/05 01:22:38;;;;;;;75.97;12.52;;;;;;;;;;2096900;28;20036;-75
2023/12/05 01:23:57;;;;;;;238.07;19.92;;;;;;;;;;2094844;28;20119;-75
2023/12/05 01:25:17;;;;;;;218.10;22.25;;;;;;;;;;2095660;28;20029;-75
2023/12/05 01:26:36;;;;;;;211.68;19.30;;;;;;;;;;2093421;28;20103;-75
2023/12/05 01:27:55;;;;;;;140.50;17.70;;;;;;;;;;2093916;28;20024;-75
2023/12/05 01:29:14;;;;;;;234.85;21.27;;;;;;;;;;2095686;28;20041;-75
2023/12/05 01:30:33;;;;;;;125.50;17.23;;;;;;;;;;2096513;28;20474;-75
2023/12/05 01:31:52;;;;;;;119.82;16.05;;;;;;;;;;2097678;28;20079;-75
2023/12/05 01:33:11;;;;;;;200.38;20.98;;;;;;;;;;2093593;28;20079;-75
2023/12/05 01:34:29;;;;;;;178.90;18.40;;;;;;;;;;2095772;28;20047;-75
2023/12/05 01:35:48;;;;;;;152.88;20.33;;;;;;;;;;2095779;28;20036;-75
2023/12/05 01:37:07;;;;;;;205.57;23.65;;;;;;;;;;2093700;28;20029;-75
2023/12/05 01:38:26;;;;;;;219.02;22.05;;;;;;;;;;2092563;28;20409;-75
2023/12/05 01:39:45;;;;;;;187.43;21.52;;;;;;;;;;2095592;28;20458;-76
2023/12/05 01:41:04;;;;;;;138.07;19.77;;;;;;;;;;2094452;28;20032;-76
2023/12/05 01:42:23;;;;;;;205.38;23.25;;;;;;;;;;2097116;28;20024;-74
2023/12/05 01:43:42;;;;;;;145.38;20.95;;;;;;;;;;2093504;28;20036;-75
2023/12/05 01:45:00;;;;;;;119.57;18.83;;;;;;;;;;2100988;28;20064;-75
2023/12/05 01:46:20;;;;;;;87.18;17.85;;;;;;;;;;2095647;28;20389;-75
2023/12/05 01:47:39;;;;;;;84.25;17.85;;;;;;;;;;2092099;28;20025;-75
2023/12/05 01:48:58;;;;;;;83.38;17.98;;;;;;;;;;2096950;28;20698;-75
2023/12/05 01:50:21;;;;;;;145.93;19.13;;;;;;;;;;2095196;28;20451;-75
2023/12/05 01:51:39;;;;;;;144.63;19.52;;;;;;;;;;2102737;28;20099;-75
2023/12/05 01:53:02;;;;;;;80.05;16.67;;;;;;;;;;2097162;28;20025;-75
2023/12/05 01:54:22;;;;;;;196.98;23.90;;;;;;;;;;2096197;28;20115;-75
2023/12/05 01:55:42;;;;;;;58.50;14.65;;;;;;;;;;2097099;28;20040;-76
2023/12/05 01:57:01;;;;;;;56.85;15.65;;;;;;;;;;2096455;28;20036;-75
2023/12/05 01:58:21;;;;;;;52.40;14.57;;;;;;;;;;2093852;28;20029;-75
2023/12/05 01:59:40;;;;;;;31.45;14.52;;;;;;;;;;2095860;28;20497;-75
2023/12/05 02:01:00;;;;;;;45.97;14.05;;;;;;;;;;2095048;28;20040;-73
2023/12/05 02:02:19;;;;;;;38.72;14.25;;;;;;;;;;2095554;28;20037;-72
2023/12/05 02:03:38;;;;;;;44.47;15.75;;;;;;;;;;2094935;28;20067;-73
2023/12/05 02:04:57;;;;;;;76.25;16.90;;;;;;;;;;2095846;28;20028;-75
2023/12/05 02:06:21;;;;;;;146.32;18.35;;;;;;;;;;2097714;28;20044;-75
2023/12/05 02:07:40;;;;;;;55.85;15.80;;;;;;;;;;2095596;28;20055;-75
2023/12/05 02:09:01;;;;;;;128.77;16.55;;;;;;;;;;2094159;28;20033;-75
2023/12/05 02:10:20;;;;;;;79.55;15.27;;;;;;;;;;2096925;28;20028;-74
2023/12/05 02:11:41;;;;;;;72.63;13.90;;;;;;;;;;2093490;28;20440;-75
2023/12/05 02:13:00;;;;;;;81.93;15.90;;;;;;;;;;2094479;28;20036;-75
2023/12/05 02:14:19;;;;;;;100.00;15.55;;;;;;;;;;2094953;28;20021;-75
2023/12/05 02:15:38;;;;;;;114.35;15.68;;;;;;;;;;2094360;28;20036;-75
2023/12/05 02:16:57;;;;;;;55.05;13.85;;;;;;;;;;2093221;28;20033;-75
2023/12/05 02:18:18;;;;;;;134.50;17.15;;;;;;;;;;2094686;28;20028;-75
2023/12/05 02:19:42;;;;;;;110.47;16.17;;;;;;;;;;2095714;28;20029;-76
2023/12/05 02:21:05;;;;;;;110.60;15.82;;;;;;;;;;2095711;28;20033;-75
2023/12/05 02:22:24;;;;;;;130.32;15.82;;;;;;;;;;2103475;28;20463;-75
2023/12/05 02:23:49;;;;;;;51.70;13.25;;;;;;;;;;2094482;28;20045;-75
2023/12/05 02:25:21;;;;;;;62.30;13.65;;;;;;;;;;2091964;28;20032;-74
2023/12/05 02:26:40;;;;;;;59.45;13.93;;;;;;;;;;2096624;28;20115;-76
2023/12/05 02:28:00;;;;;;;43.28;13.18;;;;;;;;;;2094337;28;20063;-75
2023/12/05 02:29:20;;;;;;;94.40;14.15;;;;;;;;;;2100915;28;20029;-75
2023/12/05 02:30:38;;;;;;;35.03;12.95;;;;;;;;;;2097822;28;20024;-76
2023/12/05 02:31:57;;;;;;;211.68;18.60;;;;;;;;;;2097299;28;20033;-75
2023/12/05 02:33:16;;;;;;;67.90;13.80;;;;;;;;;;2095902;28;20021;-72
2023/12/05 02:34:35;;;;;;;91.53;15.27;;;;;;;;;;2095733;28;20037;-74
2023/12/05 02:35:58;;;;;;;108.60;15.15;;;;;;;;;;2098140;28;20036;-72
2023/12/05 02:37:23;;;;;;;125.95;14.93;;;;;;;;;;2097085;28;20044;-72
2023/12/05 02:38:50;;;;;;;105.72;14.85;;;;;;;;;;2096425;28;20032;-73
2023/12/05 02:40:13;;;;;;;126.68;14.77;;;;;;;;;;2096644;28;20431;-72
2023/12/05 02:41:36;;;;;;;64.43;12.70;;;;;;;;;;2096964;28;20040;-71
2023/12/05 02:42:55;;;;;;;140.32;18.27;;;;;;;;;;2095340;28;20032;-72
2023/12/05 02:44:16;;;;;;;83.20;13.68;;;;;;;;;;2095521;28;20032;-74
2023/12/05 02:45:37;;;;;;;128.48;16.35;;;;;;;;;;2096675;28;20036;-75
2023/12/05 02:46:56;;;;;;;39.33;12.25;;;;;;;;;;2096203;28;20968;-74
2023/12/05 02:48:16;;;;;;;35.83;12.15;;;;;;;;;;2095682;28;20025;-75
2023/12/05 02:49:35;;;;;;;147.77;16.45;;;;;;;;;;2095882;28;20029;-75
2023/12/05 02:50:54;;;;;;;59.97;12.95;;;;;;;;;;2098138;28;20036;-74
2023/12/05 02:52:13;;;;;;;70.63;13.00;;;;;;;;;;2092566;28;20496;-74
2023/12/05 02:53:32;;;;;;;27.98;11.65;;;;;;;;;;2098461;28;20037;-75
2023/12/05 02:54:51;;;;;;;63.55;13.23;;;;;;;;;;2095854;28;20041;-74
2023/12/05 02:56:10;;;;;;;28.15;12.15;;;;;;;;;;2094538;28;20037;-76
2023/12/05 02:57:28;;;;;;;22.42;12.30;;;;;;;;;;2106802;28;20024;-75
2023/12/05 02:58:48;;;;;;;29.55;13.40;;;;;;;;;;2106035;28;20060;-75
2023/12/05 03:00:08;;;;;;;43.92;12.93;;;;;;;;;;2103557;28;20815;-76
2023/12/05 03:01:27;;;;;;;32.15;12.10;;;;;;;;;;2101852;28;21103;-75
2023/12/05 03:02:46;;;;;;;20.38;12.02;;;;;;;;;;2093819;28;20036;-74
2023/12/05 03:04:05;;;;;;;41.25;12.27;;;;;;;;;;2098089;28;20033;-75
2023/12/05 03:05:24;;;;;;;33.75;11.85;;;;;;;;;;2098995;28;20054;-74
2023/12/05 03:06:43;;;;;;;53.35;12.15;;;;;;;;;;2098835;28;20485;-75
2023/12/05 03:08:02;;;;;;;54.10;13.10;;;;;;;;;;2105941;28;20115;-75
2023/12/05 03:09:21;;;;;;;27.35;11.18;;;;;;;;;;2104949;28;20036;-76
2023/12/05 03:10:40;;;;;;;84.22;12.50;;;;;;;;;;2108141;28;20487;-77
2023/12/05 03:12:00;;;;;;;139.70;14.68;;;;;;;;;;2103173;28;20028;-75
2023/12/05 03:13:19;;;;;;;44.42;11.77;;;;;;;;;;2100185;28;20060;-75
2023/12/05 03:14:38;;;;;;;21.52;10.15;;;;;;;;;;2101019;28;20040;-75
2023/12/05 03:15:57;;;;;;;26.55;10.57;;;;;;;;;;2099701;28;20021;-72
2023/12/05 03:17:16;;;;;;;21.83;9.63;;;;;;;;;;2099622;28;20036;-75
2023/12/05 03:18:35;;;;;;;18.63;9.75;;;;;;;;;;2097626;28;20045;-72
2023/12/05 03:19:54;;;;;;;141.52;15.93;;;;;;;;;;2100870;28;20041;-73
2023/12/05 03:21:17;;;;;;;15.68;9.93;;;;;;;;;;2098637;28;20044;-75
2023/12/05 03:22:36;;;;;;;25.45;10.43;;;;;;;;;;2095910;28;20505;-72
2023/12/05 03:23:56;;;;;;;75.88;12.57;;;;;;;;;;2093201;28;20032;-72
2023/12/05 03:25:15;;;;;;;28.90;10.30;;;;;;;;;;2093863;28;20040;-73
2023/12/05 03:26:34;;;;;;;26.48;10.77;;;;;;;;;;2096443;28;20048;-73
2023/12/05 03:27:53;;;;;;;53.85;11.30;;;;;;;;;;2096172;28;20497;-72
2023/12/05 03:29:12;;;;;;;52.55;10.90;;;;;;;;;;2097217;28;20033;-73
2023/12/05 03:30:31;;;;;;;32.88;11.27;;;;;;;;;;2093080;28;20037;-72
2023/12/05 03:31:49;;;;;;;71.50;12.10;;;;;;;;;;2095416;28;20033;-73
2023/12/05 03:33:08;;;;;;;19.58;10.45;;;;;;;;;;2098320;28;20041;-73
2023/12/05 03:34:27;;;;;;;65.68;12.32;;;;;;;;;;2096969;28;20382;-73
2023/12/05 03:35:46;;;;;;;22.17;11.10;;;;;;;;;;2095487;28;20033;-72
2023/12/05 03:37:05;;;;;;;47.63;11.82;;;;;;;;;;2096436;28;20040;-72
2023/12/05 03:38:24;;;;;;;19.73;11.75;;;;;;;;;;2096409;28;20025;-73
2023/12/05 03:39:43;;;;;;;23.98;12.38;;;;;;;;;;2094909;28;20514;-72
2023/12/05 03:41:02;;;;;;;20.00;11.85;;;;;;;;;;2095972;28;20037;-72
2023/12/05 03:42:21;;;;;;;20.73;12.05;;;;;;;;;;2096841;28;20409;-72
2023/12/05 03:43:40;;;;;;;16.23;11.00;;;;;;;;;;2096254;28;20036;-72
2023/12/05 03:44:59;;;;;;;17.52;11.73;;;;;;;;;;2096400;28;20036;-73
2023/12/05 03:46:18;;;;;;;18.42;11.38;;;;;;;;;;2097824;28;20048;-75
2023/12/05 03:47:37;;;;;;;19.05;11.23;;;;;;;;;;2097197;28;20025;-75
2023/12/05 03:48:56;;;;;;;18.77;11.18;;;;;;;;;;2097738;28;20025;-72
2023/12/05 03:50:15;;;;;;;19.48;10.48;;;;;;;;;;2096146;28;20025;-73
2023/12/05 03:51:34;;;;;;;17.88;10.60;;;;;;;;;;2096991;28;20028;-72
2023/12/05 03:52:53;;;;;;;16.00;9.77;;;;;;;;;;2096955;28;20036;-72
2023/12/05 03:54:12;;;;;;;23.38;10.25;;;;;;;;;;2096993;28;20020;-73
2023/12/05 03:55:33;;;;;;;32.53;10.07;;;;;;;;;;2096385;28;20533;-74
2023/12/05 03:56:52;;;;;;;24.13;10.43;;;;;;;;;;2094904;28;20036;-75
2023/12/05 03:58:11;;;;;;;59.33;13.20;;;;;;;;;;2095640;28;20028;-74
2023/12/05 03:59:29;;;;;;;16.30;10.93;;;;;;;;;;2098650;28;20089;-75
2023/12/05 04:00:48;;;;;;;14.63;10.43;;;;;;;;;;2095583;28;20139;-75
2023/12/05 04:02:07;;;;;;;23.27;11.13;;;;;;;;;;2095302;28;20033;-73
2023/12/05 04:03:26;;;;;;;20.73;10.68;;;;;;;;;;2094797;28;20025;-74
2023/12/05 04:04:45;;;;;;;15.27;10.48;;;;;;;;;;2095658;28;20513;-75
2023/12/05 04:06:03;;;;;;;16.70;9.93;;;;;;;;;;2096472;28;20041;-75
2023/12/05 04:07:22;;;;;;;17.75;8.57;;;;;;;;;;2095505;28;20041;-75
2023/12/05 04:08:41;;;;;;;16.05;9.88;;;;;;;;;;2098412;28;20150;-75
2023/12/05 04:10:00;;;;;;;12.10;8.98;;;;;;;;;;2097513;28;20048;-75
2023/12/05 04:11:27;;;;;;;13.30;9.10;;;;;;;;;;2096758;28;20044;-74
2023/12/05 04:12:46;;;;;;;10.60;8.43;;;;;;;;;;2096030;28;20036;-74
2023/12/05 04:14:05;;;;;;;17.08;9.65;;;;;;;;;;2092249;28;20103;-74
2023/12/05 04:15:24;;;;;;;23.33;9.98;;;;;;;;;;2096760;28;20037;-75
2023/12/05 04:16:43;;;;;;;14.73;9.52;;;;;;;;;;2095951;28;20033;-75
2023/12/05 04:18:02;;;;;;;13.07;9.05;;;;;;;;;;2094904;28;20037;-75
2023/12/05 04:19:21;;;;;;;12.90;9.52;;;;;;;;;;2095726;28;20032;-74
2023/12/05 04:20:40;;;;;;;12.05;9.15;;;;;;;;;;2095493;28;20037;-75
2023/12/05 04:21:59;;;;;;;14.27;9.48;;;;;;;;;;2097079;28;20116;-74
2023/12/05 04:23:18;;;;;;;12.70;9.35;;;;;;;;;;2095783;28;20120;-75
2023/12/05 04:24:37;;;;;;;11.90;8.23;;;;;;;;;;2095539;28;20477;-75
2023/12/05 04:25:56;;;;;;;10.40;7.93;;;;;;;;;;2097673;28;20040;-74
2023/12/05 04:27:15;;;;;;;8.32;7.05;;;;;;;;;;2095343;28;20028;-76
2023/12/05 04:28:34;;;;;;;8.18;7.35;;;;;;;;;;2095094;28;20473;-75
2023/12/05 04:29:53;;;;;;;8.65;7.20;;;;;;;;;;2095135;28;20040;-74
2023/12/05 04:31:13;;;;;;;13.15;8.35;;;;;;;;;;2095879;28;20021;-75
2023/12/05 04:32:32;;;;;;;9.07;7.78;;;;;;;;;;2094963;28;20382;-74
2023/12/05 04:33:51;;;;;;;11.00;8.82;;;;;;;;;;2096597;28;20068;-75
2023/12/05 04:35:10;;;;;;;8.73;7.72;;;;;;;;;;2095697;28;20025;-75
2023/12/05 04:36:29;;;;;;;10.82;8.73;;;;;;;;;;2096160;28;20123;-75
2023/12/05 04:37:48;;;;;;;11.30;8.80;;;;;;;;;;2093041;28;20444;-74
2023/12/05 04:39:07;;;;;;;12.15;8.38;;;;;;;;;;2095678;28;20386;-75
2023/12/05 04:40:25;;;;;;;11.68;9.18;;;;;;;;;;2096440;28;20481;-74
2023/12/05 04:41:44;;;;;;;10.75;8.30;;;;;;;;;;2095460;28;20020;-75
2023/12/05 04:43:03;;;;;;;9.10;7.90;;;;;;;;;;2095835;28;20033;-75
2023/12/05 04:44:22;;;;;;;11.02;8.55;;;;;;;;;;2097265;28;20036;-75
2023/12/05 04:45:42;;;;;;;10.85;7.75;;;;;;;;;;2095784;28;20033;-74
2023/12/05 04:47:03;;;;;;;14.40;9.98;;;;;;;;;;2096102;28;20469;-75
2023/12/05 04:48:22;;;;;;;14.25;9.43;;;;;;;;;;2095614;28;20029;-75
2023/12/05 04:49:41;;;;;;;10.65;8.90;;;;;;;;;;2095894;28;20017;-75
2023/12/05 04:51:00;;;;;;;13.38;10.35;;;;;;;;;;2096685;28;20040;-75
2023/12/05 04:52:19;;;;;;;12.77;9.80;;;;;;;;;;2096038;28;20041;-75
2023/12/05 04:53:40;;;;;;;13.88;9.77;;;;;;;;;;2096809;28;20032;-74
2023/12/05 04:54:59;;;;;;;15.43;10.38;;;;;;;;;;2094823;28;20033;-74
2023/12/05 04:56:17;;;;;;;12.88;10.05;;;;;;;;;;2097558;28;20382;-75
2023/12/05 04:57:36;;;;;;;13.32;9.80;;;;;;;;;;2096136;28;20028;-75
2023/12/05 04:58:55;;;;;;;14.98;11.13;;;;;;;;;;2094356;28;20037;-76
2023/12/05 05:00:14;;;;;;;18.08;11.15;;;;;;;;;;2094768;28;21125;-74
2023/12/05 05:01:33;;;;;;;20.42;12.23;;;;;;;;;;2095560;28;20037;-75
2023/12/05 05:02:52;;;;;;;16.83;10.38;;;;;;;;;;2096036;28;20032;-75
2023/12/05 05:04:11;;;;;;;26.98;13.68;;;;;;;;;;2096490;28;20025;-75
2023/12/05 05:05:31;;;;;;;33.00;17.15;;;;;;;;;;2094123;28;20044;-75
2023/12/05 05:06:50;;;;;;;30.10;15.65;;;;;;;;;;2095759;28;20045;-74
2023/12/05 05:08:09;;;;;;;26.30;13.63;;;;;;;;;;2096563;28;20119;-75
2023/12/05 05:09:29;;;;;;;25.73;13.75;;;;;;;;;;2095096;28;20040;-75
2023/12/05 05:10:48;;;;;;;23.40;13.23;;;;;;;;;;2096566;28;20024;-75
2023/12/05 05:12:10;;;;;;;16.38;11.25;;;;;;;;;;2095536;28;20484;-76
2023/12/05 05:13:29;;;;;;;16.33;11.32;;;;;;;;;;2093715;28;20037;-73
2023/12/05 05:14:48;;;;;;;14.98;11.07;;;;;;;;;;2095561;28;20108;-74
2023/12/05 05:16:07;;;;;;;16.55;10.63;;;;;;;;;;2093832;28;20021;-73
2023/12/05 05:17:26;;;;;;;20.17;12.63;;;;;;;;;;2094528;28;20401;-76
2023/12/05 05:18:45;;;;;;;18.20;12.30;;;;;;;;;;2095640;28;20052;-75
2023/12/05 05:20:04;;;;;;;19.50;12.40;;;;;;;;;;2101642;28;20107;-76
2023/12/05 05:21:23;;;;;;;16.65;11.18;;;;;;;;;;2099196;28;20032;-76
2023/12/05 05:22:42;;;;;;;18.77;11.73;;;;;;;;;;2095816;28;20040;-75
2023/12/05 05:24:01;;;;;;;15.73;11.27;;;;;;;;;;2095899;28;20029;-76
2023/12/05 05:25:20;;;;;;;16.40;11.63;;;;;;;;;;2094642;28;20036;-75
2023/12/05 05:26:39;;;;;;;15.27;10.82;;;;;;;;;;2099807;28;20382;-74
2023/12/05 05:27:59;;;;;;;16.02;11.35;;;;;;;;;;2097690;28;20475;-75
2023/12/05 05:29:19;;;;;;;13.57;9.82;;;;;;;;;;2094430;28;20029;-75
2023/12/05 05:30:38;;;;;;;18.48;12.90;;;;;;;;;;2089260;28;20440;-76
2023/12/05 05:31:56;;;;;;;17.48;11.80;;;;;;;;;;2093445;28;20537;-75
2023/12/05 05:33:16;;;;;;;16.38;11.10;;;;;;;;;;2094667;28;21330;-74
2023/12/05 05:34:35;;;;;;;15.25;10.02;;;;;;;;;;2095461;28;20409;-75
2023/12/05 05:35:54;;;;;;;13.45;9.73;;;;;;;;;;2099642;28;20036;-75
2023/12/05 05:37:12;;;;;;;11.93;9.15;;;;;;;;;;2094543;28;20119;-75
2023/12/05 05:38:31;;;;;;;11.35;8.77;;;;;;;;;;2093372;28;20521;-75
2023/12/05 05:39:50;;;;;;;12.00;10.00;;;;;;;;;;2090854;28;20047;-75
2023/12/05 05:41:10;;;;;;;15.75;9.32;;;;;;;;;;2095736;28;20040;-75
2023/12/05 05:42:29;;;;;;;10.35;8.43;;;;;;;;;;2097040;28;20135;-76
2023/12/05 05:43:47;;;;;;;11.45;8.93;;;;;;;;;;2090127;28;20123;-74
2023/12/05 05:45:07;;;;;;;11.95;8.95;;;;;;;;;;2092202;28;20040;-74
2023/12/05 05:46:26;;;;;;;14.25;9.35;;;;;;;;;;2092026;28;20073;-76
2023/12/05 05:47:44;;;;;;;11.52;8.68;;;;;;;;;;2093200;28;20020;-75
2023/12/05 05:49:03;;;;;;;11.32;9.23;;;;;;;;;;2091747;28;20085;-74
2023/12/05 05:50:23;;;;;;;13.57;9.40;;;;;;;;;;2092772;28;20111;-75
2023/12/05 05:51:42;;;;;;;14.00;10.00;;;;;;;;;;2095049;28;20032;-75
2023/12/05 05:53:01;;;;;;;12.38;9.15;;;;;;;;;;2094470;28;20025;-76
2023/12/05 05:54:19;;;;;;;12.05;8.93;;;;;;;;;;2094685;28;20029;-73
2023/12/05 05:55:38;;;;;;;14.05;9.13;;;;;;;;;;2096314;28;20048;-74
2023/12/05 05:56:57;;;;;;;14.75;9.02;;;;;;;;;;2094332;28;20032;-73
2023/12/05 05:58:16;;;;;;;14.07;8.80;;;;;;;;;;2092255;28;20558;-75
2023/12/05 05:59:35;;;;;;;13.18;9.48;;;;;;;;;;2095125;28;20088;-74
2023/12/05 06:00:54;;;;;;;12.20;9.50;;;;;;;;;;2095955;28;20058;-74
2023/12/05 06:02:13;;;;;;;12.90;9.50;;;;;;;;;;2095963;28;20486;-74
2023/12/05 06:03:33;;;;;;;12.52;8.75;;;;;;;;;;2096019;28;20442;-76
2023/12/05 06:04:52;;;;;;;12.25;9.13;;;;;;;;;;2096136;28;20029;-74
2023/12/05 06:06:11;;;;;;;13.88;9.85;;;;;;;;;;2097151;28;20036;-75
2023/12/05 06:07:30;;;;;;;31.58;17.15;;;;;;;;;;2097264;28;20060;-75
2023/12/05 06:08:49;;;;;;;16.55;10.60;;;;;;;;;;2096583;28;20122;-76
2023/12/05 06:10:08;;;;;;;12.50;8.68;;;;;;;;;;2096454;28;20478;-77
2023/12/05 06:11:28;;;;;;;33.33;15.38;;;;;;;;;;2095847;28;20057;-75
2023/12/05 06:12:47;;;;;;;13.98;9.30;;;;;;;;;;2098114;28;20025;-76
2023/12/05 06:14:06;;;;;;;15.90;9.98;;;;;;;;;;2097568;28;20029;-76
2023/12/05 06:15:25;;;;;;;15.75;10.20;;;;;;;;;;2095537;28;20029;-76
2023/12/05 06:16:44;;;;;;;11.50;9.02;;;;;;;;;;2097169;28;20032;-76
2023/12/05 06:18:03;;;;;;;13.15;9.52;;;;;;;;;;2099573;28;20025;-76
2023/12/05 06:19:22;;;;;;;14.05;9.05;;;;;;;;;;2096860;28;20527;-77
2023/12/05 06:20:42;;;;;;;15.88;10.55;;;;;;;;;;2098504;28;20084;-77
2023/12/05 06:22:01;;;;;;;12.68;9.65;;;;;;;;;;2097210;28;20032;-76
2023/12/05 06:23:20;;;;;;;12.30;9.57;;;;;;;;;;2097423;28;20037;-75
2023/12/05 06:24:39;;;;;;;15.27;10.52;;;;;;;;;;2094422;28;21524;-76
2023/12/05 06:25:58;;;;;;;13.90;9.95;;;;;;;;;;2096177;28;20040;-77
2023/12/05 06:27:17;;;;;;;15.88;10.13;;;;;;;;;;2095529;28;20051;-77
2023/12/05 06:28:36;;;;;;;14.55;11.27;;;;;;;;;;2098561;28;20037;-76
2023/12/05 06:29:55;;;;;;;15.30;10.52;;;;;;;;;;2095255;28;20029;-79
2023/12/05 06:31:14;;;;;;;17.83;10.82;;;;;;;;;;2101616;28;20099;-77
2023/12/05 06:32:33;;;;;;;15.43;10.55;;;;;;;;;;2101105;28;20092;-78
2023/12/05 06:33:51;;;;;;;17.02;11.48;;;;;;;;;;2097718;28;20032;-79
2023/12/05 06:35:10;;;;;;;16.02;11.40;;;;;;;;;;2094917;28;20436;-77
2023/12/05 06:36:29;;;;;;;16.83;11.13;;;;;;;;;;2092359;28;20057;-79
2023/12/05 06:37:53;;;;;;;18.52;11.50;;;;;;;;;;2094977;28;20481;-76
2023/12/05 06:39:13;;;;;;;16.88;11.20;;;;;;;;;;2101041;28;20049;-78
2023/12/05 06:40:32;;;;;;;14.10;10.13;;;;;;;;;;2107998;28;20028;-77
2023/12/05 06:41:51;;;;;;;15.40;9.88;;;;;;;;;;2104639;28;20020;-77
2023/12/05 06:43:10;;;;;;;13.90;9.73;;;;;;;;;;2111825;28;20080;-78
2023/12/05 06:44:29;;;;;;;15.40;10.35;;;;;;;;;;2110138;28;20045;-76
2023/12/05 06:45:48;;;;;;;16.38;10.77;;;;;;;;;;2105168;28;20048;-79
2023/12/05 06:47:07;;;;;;;15.45;10.48;;;;;;;;;;2104572;28;20080;-80
2023/12/05 06:48:27;;;;;;;16.45;10.73;;;;;;;;;;2104610;28;20044;-78
2023/12/05 06:49:47;;;;;;;18.00;11.25;;;;;;;;;;2106286;28;20036;-76
2023/12/05 06:51:06;;;;;;;20.25;11.63;;;;;;;;;;2107542;28;20036;-79
2023/12/05 06:52:25;;;;;;;16.77;12.20;;;;;;;;;;2099987;28;20072;-78
2023/12/05 06:53:46;;;;;;;19.13;12.57;;;;;;;;;;2104816;28;20029;-79
2023/12/05 06:55:06;;;;;;;21.67;12.60;;;;;;;;;;2103776;28;20052;-78
2023/12/05 06:56:25;;;;;;;21.63;12.70;;;;;;;;;;2097237;28;20025;-76
2023/12/05 06:57:44;;;;;;;19.70;12.48;;;;;;;;;;2099490;28;20487;-76
2023/12/05 06:59:03;;;;;;;20.27;13.13;;;;;;;;;;2098283;28;20040;-76
2023/12/05 07:00:22;;;;;;;21.58;13.63;;;;;;;;;;2095348;28;20033;-76
2023/12/05 07:01:42;;;;;;;22.77;13.77;;;;;;;;;;2095700;28;20052;-76
2023/12/05 07:03:01;;;;;;;24.27;14.70;;;;;;;;;;2095641;28;20467;-76
2023/12/05 07:04:20;;;;;;;22.75;13.73;;;;;;;;;;2097987;28;20028;-76
2023/12/05 07:05:39;;;;;;;22.80;13.60;;;;;;;;;;2096159;28;20172;-76
2023/12/05 07:06:59;;;;;;;27.85;14.65;;;;;;;;;;2091426;28;20032;-77
2023/12/05 07:08:18;;;;;;;25.15;15.15;;;;;;;;;;2099237;28;20024;-77
2023/12/05 07:09:37;;;;;;;44.63;16.20;;;;;;;;;;2098389;28;20036;-76
2023/12/05 07:10:56;;;;;;;24.77;15.40;;;;;;;;;;2091724;28;20024;-76
2023/12/05 07:12:14;;;;;;;37.10;14.48;;;;;;;;;;2095425;28;20040;-76
2023/12/05 07:13:33;;;;;;;26.23;14.50;;;;;;;;;;2098116;28;20120;-75
2023/12/05 07:14:53;;;;;;;30.13;15.85;;;;;;;;;;2096868;28;20024;-76
2023/12/05 07:16:12;;;;;;;26.58;14.98;;;;;;;;;;2097919;28;20025;-76
2023/12/05 07:17:31;;;;;;;22.10;13.23;;;;;;;;;;2096564;28;20485;-78
2023/12/05 07:18:50;;;;;;;24.77;14.18;;;;;;;;;;2095160;28;20040;-76
2023/12/05 07:20:09;;;;;;;26.15;13.25;;;;;;;;;;2095375;28;20040;-76
2023/12/05 07:21:28;;;;;;;23.63;13.50;;;;;;;;;;2098602;28;20033;-76
2023/12/05 07:22:47;;;;;;;26.10;14.18;;;;;;;;;;2096951;28;20037;-76
2023/12/05 07:24:06;;;;;;;31.17;16.48;;;;;;;;;;2094887;28;20068;-76
2023/12/05 07:25:26;;;;;;;26.65;15.25;;;;;;;;;;2095488;28;20981;-77
2023/12/05 07:26:46;;;;;;;31.60;16.23;;;;;;;;;;2100788;28;20521;-76
2023/12/05 07:28:05;;;;;;;25.55;14.10;;;;;;;;;;2099939;28;20033;-76
2023/12/05 07:29:24;;;;;;;24.17;13.52;;;;;;;;;;2095900;28;20025;-76
2023/12/05 07:30:44;;;;;;;25.13;14.73;;;;;;;;;;2091285;28;20033;-77
2023/12/05 07:32:03;;;;;;;25.75;14.20;;;;;;;;;;2094962;28;20024;-76
2023/12/05 07:33:22;;;;;;;25.05;15.13;;;;;;;;;;2096714;28;20025;-76
2023/12/05 07:34:41;;;;;;;21.63;12.60;;;;;;;;;;2096008;28;20020;-79
2023/12/05 07:36:03;;;;;;;23.27;13.05;;;;;;;;;;2095454;28;20065;-78
2023/12/05 07:37:22;;;;;;;21.08;12.10;;;;;;;;;;2091381;28;20393;-76
2023/12/05 07:38:41;;;;;;;19.88;12.32;;;;;;;;;;2093781;28;20040;-77
2023/12/05 07:40:01;;;;;;;17.00;11.85;;;;;;;;;;2097550;28;20028;-76
2023/12/05 07:41:20;;;;;;;21.92;12.98;;;;;;;;;;2096343;28;20032;-76
2023/12/05 07:42:40;;;;;;;21.02;12.73;;;;;;;;;;2097149;28;20514;-77
2023/12/05 07:44:00;;;;;;;21.27;13.05;;;;;;;;;;2096893;28;20032;-76